LFMDLFKB

Guest
Details From LFMD - Mandelieu
To LFKB - Bastia Poretta
Flight Number -
Tags decoded
Created
Modified
Stats Distance 130 nm / 240 km
Max Altitude 0 ft / 0 m
Waypoints 5
Social Downloads 2
Likes 0
Share VATSIM

Download

Looking for another format? Having issues loading an existing format? Contact us
Advertisement - Login to hide

Notes

Requested: LFMD MERLU NORKA BTA LFKB

Route

LFMD MERLU NORKA BTA LFKB

ID Type Via Altitude Latitude Longitude Leg Dist Tot Dist Heading (true) Name
O LFMD APT - 0 ft / 0 m 43.54673˚ 6.95310˚ - 0 nm - Mandelieu
MERLU FIX - 0 ft / 0 m 43.08000˚ 7.79333˚ 46 nm 46 nm 127° / 128° -
NORKA FIX - 0 ft / 0 m 42.95306˚ 8.79139˚ 44 nm 90 nm 100° / 100° -
BTA VOR - 0 ft / 0 m 42.57369˚ 9.47459˚ 37 nm 128 nm 127° / 127° BASTIA PORETTA VOR-DME
O LFKB APT - 0 ft / 0 m 42.55251˚ 9.48371˚ 1 nm 129 nm 162° / 162° Bastia Poretta

Altitude Profile

Advertisement - Login to hide

LFMD

Details ICAO LFMD (CEQ)
Name Mandelieu
Region France
Timezone Europe/Paris (UTC+1.0)
Stats Elevation 12 ft / 4 m (AMSL)
Location 43.546734° 6.953097°
Runways 3
Magnetic Variation 1.956° E

METAR

LFMD 131100Z AUTO 00000KT CAVOK 11/M02 Q1018 BECMG 25015G30KT

Decode

TAF

TAF LFMD 130800Z 1309/1409 VRB03KT CAVOK BECMG 1310/1312 25010KT BECMG 1312/1314 25015G30KT

Decode

Departure Runways

ID Width Length Bearing (true) Bearing (mag) Surface Threshold Offset Overrun Length
05 98 ft / 30 m 2,430 ft / 741 m 45.28° 43.32° Asphalt 295 ft / 90 m 0 ft / 0 m
17 148 ft / 45 m 5,287 ft / 1,611 m 172.58° 170.62° Asphalt 689 ft / 210 m 0 ft / 0 m
17L 164 ft / 50 m 1,872 ft / 571 m 172.60° 170.64° Grass 0 ft / 0 m 0 ft / 0 m
23 98 ft / 30 m 2,430 ft / 741 m 225.28° 223.32° Asphalt 98 ft / 30 m 0 ft / 0 m
35 148 ft / 45 m 5,287 ft / 1,611 m 352.58° 350.62° Asphalt 1,148 ft / 350 m 0 ft / 0 m
35R 164 ft / 50 m 1,872 ft / 571 m 352.60° 350.64° Grass 0 ft / 0 m 0 ft / 0 m

LFKB

Details ICAO LFKB (BIA)
Name Bastia Poretta
Region France
Timezone Europe/Paris (UTC+1.0)
Stats Elevation 25 ft / 8 m (AMSL)
Location 42.552508° 9.483709°
Runways 1
Magnetic Variation 2.484° E

METAR

LFKB 131100Z AUTO 23006KT 200V260 CAVOK 15/M00 Q1017 NOSIG

Decode

TAF

TAF TAF LFKB 130800Z 1309/1409 24008KT 9999 FEW040 TEMPO 1314/1323 24010G20KT BECMG 1404/1406 25015G25KT TX14/1312Z TN08/1402Z

Decode

Destination Runways

ID Width Length Bearing (true) Bearing (mag) Surface Threshold Offset Overrun Length
16 148 ft / 45 m 8,273 ft / 2,522 m 162.83° 160.35° Concrete 0 ft / 0 m 131 ft / 40 m
34 148 ft / 45 m 8,273 ft / 2,522 m 342.84° 340.36° Concrete 0 ft / 0 m 0 ft / 0 m

Approach Navaids

Runway Type Ident Frequency Range Bearing (true) Bearing (mag) Slope Elevation
34 Localiser BP 111.35 MHz 27 nm / 50 km 342.81° 340.33° - 25 ft / 8 m (AMSL)
34 Glidescope BP 111.35 MHz 27 nm / 50 km 342.81° 340.33° 3.00° 25 ft / 8 m (AMSL)
34 DME BP 111.35 MHz 18 nm / 33 km - - - 69 ft / 21 m (AMSL)

Popular Alternatives